createdAt,value
2023-04-17T00:02:26.128Z,18.20
2023-04-17T00:05:02.133Z,17.95
2023-04-17T00:07:43.071Z,18.50
2023-04-17T00:10:20.007Z,18.40
2023-04-17T00:16:12.423Z,17.42
2023-04-17T00:25:17.727Z,18.23
2023-04-17T00:28:23.427Z,18.58
2023-04-17T00:31:12.703Z,17.70
2023-04-17T00:34:07.941Z,17.83
2023-04-17T00:36:44.204Z,17.88
2023-04-17T00:40:04.958Z,17.35
2023-04-17T00:42:41.048Z,17.67
2023-04-17T00:45:18.160Z,17.00
2023-04-17T00:47:57.390Z,16.67
2023-04-17T00:50:43.123Z,17.25
2023-04-17T00:53:19.913Z,17.65
2023-04-17T00:56:22.026Z,17.02
2023-04-17T00:59:05.337Z,17.10
2023-04-17T01:01:44.082Z,16.65
2023-04-17T01:04:22.656Z,16.65
2023-04-17T01:07:11.382Z,16.10
2023-04-17T01:09:46.969Z,16.65
2023-04-17T01:12:45.489Z,18.30
2023-04-17T01:15:24.225Z,17.73
2023-04-17T01:18:04.190Z,17.25
2023-04-17T01:20:45.320Z,17.73
2023-04-17T01:23:28.195Z,17.30
2023-04-17T01:26:06.137Z,17.73
2023-04-17T01:28:49.833Z,16.48
2023-04-17T01:31:26.422Z,17.25
2023-04-17T01:34:01.923Z,17.85
2023-04-17T01:36:37.591Z,18.63
2023-04-17T01:39:21.087Z,17.65
2023-04-17T01:41:57.469Z,17.75
2023-04-17T01:44:30.261Z,17.77
2023-04-17T01:47:06.215Z,18.52
2023-04-17T01:49:41.346Z,17.67
2023-04-17T01:52:15.652Z,18.33
2023-04-17T01:54:49.901Z,18.02
2023-04-17T01:57:26.451Z,17.88
2023-04-17T01:59:59.874Z,17.90
2023-04-17T02:02:35.837Z,17.23
2023-04-17T02:05:11.135Z,17.50
2023-04-17T02:07:45.343Z,17.42
2023-04-17T02:10:20.172Z,18.40
2023-04-17T02:12:58.995Z,18.63
2023-04-17T02:15:34.074Z,18.33
2023-04-17T02:18:10.719Z,18.77
2023-04-17T02:20:44.838Z,19.20
2023-04-17T02:23:22.787Z,17.67
2023-04-17T02:25:55.577Z,17.17
2023-04-17T02:28:35.395Z,18.15
2023-04-17T02:31:15.055Z,19.52
2023-04-17T02:33:50.986Z,19.02
2023-04-17T02:36:24.019Z,18.92
2023-04-17T02:39:00.616Z,18.92
2023-04-17T02:41:35.689Z,18.35
2023-04-17T02:44:12.130Z,18.60
2023-04-17T02:46:45.763Z,19.60
2023-04-17T02:49:21.887Z,19.73
2023-04-17T02:51:54.733Z,18.77
2023-04-17T02:54:30.878Z,19.35
2023-04-17T02:57:15.208Z,21.15
2023-04-17T02:59:56.904Z,19.20
2023-04-17T03:02:51.853Z,19.40
2023-04-17T03:05:31.921Z,19.67
2023-04-17T03:08:05.671Z,18.88
2023-04-17T03:10:43.347Z,19.50
2023-04-17T03:13:18.162Z,19.27
2023-04-17T03:15:55.838Z,18.67
2023-04-17T03:18:28.425Z,19.73
2023-04-17T03:21:03.365Z,20.23
2023-04-17T03:23:47.554Z,21.02
2023-04-17T03:26:36.754Z,20.13
2023-04-17T03:29:16.855Z,19.25
2023-04-17T03:31:58.555Z,20.20
2023-04-17T03:34:32.122Z,19.88
2023-04-17T03:37:11.714Z,20.98
2023-04-17T03:39:45.074Z,21.90
2023-04-17T03:42:29.894Z,20.98
2023-04-17T03:45:03.978Z,20.48
2023-04-17T03:47:40.140Z,21.10
2023-04-17T03:50:31.716Z,21.30
2023-04-17T03:53:06.364Z,21.33
2023-04-17T03:55:38.693Z,23.05
2023-04-17T03:58:11.677Z,22.27
2023-04-17T04:00:45.966Z,21.45
2023-04-17T04:03:21.159Z,23.08
2023-04-17T04:05:53.350Z,22.55
2023-04-17T04:08:27.164Z,24.10
2023-04-17T04:11:00.734Z,22.20
2023-04-17T04:13:34.449Z,22.40
2023-04-17T04:16:07.365Z,22.27
2023-04-17T04:18:44.239Z,21.67
2023-04-17T04:21:16.683Z,23.25
2023-04-17T04:23:50.432Z,23.30
2023-04-17T04:26:25.366Z,22.85
2023-04-17T04:29:01.070Z,25.70
2023-04-17T04:31:34.084Z,23.83
2023-04-17T04:34:10.218Z,23.60
2023-04-17T04:36:50.964Z,23.05
2023-04-17T04:39:23.680Z,23.35
2023-04-17T04:42:11.002Z,24.02
2023-04-17T04:44:49.448Z,24.42
2023-04-17T04:47:40.451Z,24.60
2023-04-17T04:50:33.215Z,24.88
2023-04-17T04:53:05.996Z,24.85
2023-04-17T04:55:42.170Z,24.13
2023-04-17T04:58:14.748Z,25.05
2023-04-17T05:00:51.043Z,24.42
2023-04-17T05:03:23.982Z,24.08
2023-04-17T05:06:02.111Z,24.80
2023-04-17T05:08:35.003Z,25.23
2023-04-17T05:11:08.753Z,23.98
2023-04-17T05:13:41.408Z,25.23
2023-04-17T05:16:14.290Z,24.27
2023-04-17T05:18:49.385Z,25.35
2023-04-17T05:21:31.090Z,25.60
2023-04-17T05:24:04.741Z,26.08
2023-04-17T05:26:37.489Z,26.05
2023-04-17T05:29:10.197Z,25.83
2023-04-17T05:31:44.339Z,26.60
2023-04-17T05:37:11.804Z,30.48
2023-04-17T05:39:44.246Z,27.92
2023-04-17T05:42:16.770Z,27.90
2023-04-17T05:44:50.005Z,28.83
2023-04-17T05:47:23.818Z,28.02
2023-04-17T05:50:22.827Z,28.23
2023-04-17T05:54:04.178Z,27.98
2023-04-17T05:56:42.391Z,31.02
2023-04-17T05:59:14.617Z,31.77
2023-04-17T06:01:47.146Z,30.65
2023-04-17T06:04:19.496Z,32.00
2023-04-17T06:06:53.340Z,31.42
2023-04-17T06:09:28.489Z,31.42
2023-04-17T06:12:01.500Z,31.92
2023-04-17T06:14:35.794Z,32.25
2023-04-17T06:17:08.795Z,33.15
2023-04-17T06:19:43.922Z,32.55
2023-04-17T06:22:16.855Z,32.53
2023-04-17T06:24:51.913Z,32.70
2023-04-17T06:27:24.807Z,32.03
2023-04-17T06:29:57.293Z,33.30
2023-04-17T06:32:30.476Z,32.65
2023-04-17T06:35:03.865Z,32.70
2023-04-17T06:37:37.894Z,32.00
2023-04-17T06:40:15.272Z,31.83
2023-04-17T06:42:48.346Z,29.20
2023-04-17T06:45:21.531Z,29.30
2023-04-17T06:47:54.614Z,28.65
2023-04-17T06:50:27.266Z,28.60
2023-04-17T06:53:05.671Z,26.05
2023-04-17T06:55:49.188Z,26.05
2023-04-17T06:58:30.651Z,26.58
2023-04-17T07:01:03.664Z,26.40
2023-04-17T07:03:37.859Z,25.23
2023-04-17T07:06:10.623Z,27.55
2023-04-17T07:08:43.416Z,27.35
2023-04-17T07:11:25.004Z,29.45
2023-04-17T07:14:02.204Z,27.75
2023-04-17T07:16:36.375Z,27.10
2023-04-17T07:19:09.572Z,26.23
2023-04-17T07:21:45.650Z,26.98
2023-04-17T07:24:18.639Z,23.65
2023-04-17T07:26:53.577Z,24.33
2023-04-17T07:29:26.464Z,24.92
2023-04-17T07:32:00.226Z,26.42
2023-04-17T07:34:34.896Z,26.45
2023-04-17T07:37:07.190Z,25.38
2023-04-17T07:39:57.373Z,26.10
2023-04-17T07:45:50.333Z,24.90
2023-04-17T07:48:23.725Z,26.25
2023-04-17T07:50:55.312Z,24.77
2023-04-17T07:53:29.499Z,27.63
2023-04-17T07:56:01.774Z,24.38
2023-04-17T07:58:39.472Z,24.02
2023-04-17T08:01:12.097Z,26.50
2023-04-17T08:03:45.916Z,26.17
2023-04-17T08:06:19.198Z,25.23
2023-04-17T08:08:51.749Z,25.75
2023-04-17T08:11:23.997Z,23.88
2023-04-17T08:14:00.148Z,25.65
2023-04-17T08:16:32.802Z,24.58
2023-04-17T08:19:05.462Z,23.33
2023-04-17T08:21:38.604Z,22.33
2023-04-17T08:24:11.551Z,22.85
2023-04-17T08:26:43.963Z,22.52
2023-04-17T08:29:19.707Z,24.98
2023-04-17T08:32:00.102Z,23.30
2023-04-17T08:34:34.137Z,23.17
2023-04-17T08:37:07.745Z,21.95
2023-04-17T08:39:40.502Z,22.50
2023-04-17T08:42:19.182Z,21.02
2023-04-17T08:45:11.963Z,23.35
2023-04-17T08:47:48.657Z,20.85
2023-04-17T08:50:23.765Z,21.75
2023-04-17T08:52:57.086Z,23.02
2023-04-17T08:55:33.447Z,20.92
2023-04-17T08:58:09.885Z,20.35
2023-04-17T09:00:46.880Z,20.73
2023-04-17T09:03:19.744Z,20.77
2023-04-17T09:05:52.526Z,21.92
2023-04-17T09:08:30.275Z,20.77
2023-04-17T09:11:03.150Z,21.92
2023-04-17T09:13:44.991Z,20.70
2023-04-17T09:16:20.830Z,21.85
2023-04-17T09:18:53.216Z,21.50
2023-04-17T09:21:38.569Z,21.73
2023-04-17T09:24:11.113Z,19.38
2023-04-17T09:26:44.041Z,21.90
2023-04-17T09:29:17.079Z,19.33
2023-04-17T09:31:52.970Z,19.35
2023-04-17T09:34:25.267Z,21.30
2023-04-17T09:36:58.652Z,19.17
2023-04-17T09:39:30.975Z,19.63
2023-04-17T09:42:11.600Z,17.85
2023-04-17T09:44:43.959Z,17.15
2023-04-17T09:47:21.381Z,17.50
2023-04-17T09:49:56.447Z,15.68
2023-04-17T09:52:30.335Z,17.83
2023-04-17T09:55:07.477Z,15.93
2023-04-17T09:57:44.631Z,16.33
2023-04-17T10:00:18.198Z,16.30
2023-04-17T10:02:56.660Z,15.90
2023-04-17T10:05:32.758Z,16.40
2023-04-17T10:08:06.934Z,15.82
2023-04-17T10:10:39.629Z,15.30
2023-04-17T10:13:15.775Z,15.38
2023-04-17T10:15:51.376Z,14.75
2023-04-17T10:18:34.825Z,15.77
2023-04-17T10:21:31.530Z,14.55
2023-04-17T10:24:38.057Z,14.73
2023-04-17T10:27:49.283Z,14.60
2023-04-17T10:30:56.810Z,14.23
2023-04-17T10:33:36.099Z,14.82
2023-04-17T10:36:09.850Z,15.07
2023-04-17T10:38:41.704Z,14.55
2023-04-17T10:41:16.537Z,14.85
2023-04-17T10:43:48.774Z,14.00
2023-04-17T10:46:21.507Z,15.20
2023-04-17T10:48:56.974Z,14.15
2023-04-17T10:51:47.108Z,14.50
2023-04-17T10:54:27.859Z,13.27
2023-04-17T10:57:11.736Z,13.85
2023-04-17T11:03:07.218Z,13.60
2023-04-17T11:05:49.542Z,14.90
2023-04-17T11:08:24.202Z,13.05
2023-04-17T11:11:00.058Z,12.80
2023-04-17T11:13:40.921Z,13.23
2023-04-17T11:16:14.612Z,12.52
2023-04-17T11:18:53.620Z,13.27
2023-04-17T11:21:35.071Z,13.60
2023-04-17T11:24:10.487Z,13.65
2023-04-17T11:26:47.204Z,14.15
2023-04-17T11:29:22.713Z,14.05
2023-04-17T11:31:58.707Z,13.70
2023-04-17T11:34:31.693Z,13.80
2023-04-17T11:37:12.016Z,14.48
2023-04-17T11:39:46.775Z,15.60
2023-04-17T11:42:30.741Z,14.60
2023-04-17T11:45:08.238Z,15.20
2023-04-17T11:47:40.455Z,15.30
2023-04-17T11:50:13.349Z,14.80
2023-04-17T11:52:48.581Z,12.40
2023-04-17T11:55:21.590Z,13.80
2023-04-17T11:57:55.776Z,14.38
2023-04-17T12:00:31.061Z,13.73
2023-04-17T12:03:06.662Z,14.65
2023-04-17T12:05:39.490Z,14.57
2023-04-17T12:08:16.271Z,15.15
2023-04-17T12:10:49.825Z,15.07
2023-04-17T12:13:24.206Z,14.40
2023-04-17T12:16:07.756Z,15.00
2023-04-17T12:18:40.787Z,14.90
2023-04-17T12:21:13.420Z,14.68
2023-04-17T12:23:48.435Z,14.60
2023-04-17T12:26:20.874Z,14.45
2023-04-17T12:28:53.433Z,13.95
2023-04-17T12:31:26.217Z,15.82
2023-04-17T12:33:58.456Z,15.32
2023-04-17T12:36:31.192Z,16.25
2023-04-17T12:39:06.458Z,15.85
2023-04-17T12:41:38.928Z,14.50
2023-04-17T12:44:11.637Z,14.88
2023-04-17T12:46:45.296Z,15.18
2023-04-17T12:49:21.712Z,15.05
2023-04-17T12:51:54.774Z,13.45
2023-04-17T12:54:29.702Z,14.05
2023-04-17T12:57:02.645Z,13.48
2023-04-17T12:59:37.590Z,13.70
2023-04-17T13:02:12.847Z,13.85
2023-04-17T13:04:45.432Z,12.82
2023-04-17T13:07:34.274Z,12.63
2023-04-17T13:10:12.688Z,13.43
2023-04-17T13:12:45.687Z,12.57
2023-04-17T13:15:18.751Z,12.65
2023-04-17T13:17:51.839Z,14.18
2023-04-17T13:20:24.873Z,13.35
2023-04-17T13:22:59.083Z,14.05
2023-04-17T13:25:36.593Z,14.20
2023-04-17T13:28:09.279Z,15.18
2023-04-17T13:30:43.676Z,16.05
2023-04-17T13:33:17.452Z,15.90
2023-04-17T13:35:51.447Z,16.02
2023-04-17T13:38:24.845Z,18.35
2023-04-17T13:41:00.402Z,16.50
2023-04-17T13:43:35.837Z,17.85
2023-04-17T13:46:09.540Z,17.95
2023-04-17T13:48:45.499Z,18.40
2023-04-17T13:51:18.135Z,19.05
2023-04-17T13:53:54.637Z,20.08
2023-04-17T13:56:58.958Z,20.92
2023-04-17T13:59:39.540Z,20.25
2023-04-17T14:02:16.584Z,20.73
2023-04-17T14:04:50.097Z,20.55
2023-04-17T14:07:22.653Z,20.80
2023-04-17T14:09:56.332Z,21.15
2023-04-17T14:12:31.860Z,21.40
2023-04-17T14:15:07.575Z,22.58
2023-04-17T14:18:06.293Z,24.27
2023-04-17T14:20:43.793Z,23.40
2023-04-17T14:23:20.059Z,24.38
2023-04-17T14:25:57.949Z,24.63
2023-04-17T14:28:34.120Z,22.63
2023-04-17T14:31:07.177Z,22.85
2023-04-17T14:33:44.352Z,21.88
2023-04-17T14:36:20.633Z,23.00
2023-04-17T14:39:14.048Z,24.25
2023-04-17T14:41:50.515Z,22.02
2023-04-17T14:44:25.972Z,21.42
2023-04-17T14:46:59.051Z,21.27
2023-04-17T14:49:33.126Z,20.90
2023-04-17T14:52:05.962Z,20.40
2023-04-17T14:54:38.439Z,21.00
2023-04-17T14:57:11.564Z,20.42
2023-04-17T14:59:47.000Z,21.75
2023-04-17T15:02:19.882Z,22.45
2023-04-17T15:04:52.404Z,22.90
2023-04-17T15:07:25.359Z,21.85
2023-04-17T15:09:57.720Z,23.40
2023-04-17T15:12:30.616Z,22.52
2023-04-17T15:15:06.878Z,21.67
2023-04-17T15:17:40.897Z,23.67
2023-04-17T15:20:12.905Z,20.30
2023-04-17T15:22:46.083Z,18.60
2023-04-17T15:25:17.906Z,19.33
2023-04-17T15:27:50.008Z,19.85
2023-04-17T15:30:24.334Z,18.73
2023-04-17T15:32:56.360Z,20.50
2023-04-17T15:35:27.873Z,21.58
2023-04-17T15:37:59.876Z,21.90
2023-04-17T15:40:32.047Z,22.20
2023-04-17T15:43:05.102Z,20.38
2023-04-17T15:45:39.613Z,20.40
2023-04-17T15:48:12.047Z,21.77
2023-04-17T15:50:43.965Z,21.38
2023-04-17T15:53:15.732Z,23.15
2023-04-17T15:55:48.191Z,24.10
2023-04-17T15:58:22.649Z,22.02
2023-04-17T16:00:56.834Z,22.60
2023-04-17T16:03:29.243Z,21.08
2023-04-17T16:06:01.190Z,23.10
2023-04-17T16:08:35.368Z,22.77
2023-04-17T16:11:07.773Z,22.35
2023-04-17T16:13:43.537Z,18.70
2023-04-17T16:16:19.058Z,17.30
2023-04-17T16:18:51.178Z,16.08
2023-04-17T16:21:23.039Z,17.65
2023-04-17T16:23:55.703Z,18.42
2023-04-17T16:26:27.787Z,19.58
2023-04-17T16:29:00.058Z,17.88
2023-04-17T16:31:34.742Z,19.00
2023-04-17T16:34:06.837Z,20.17
2023-04-17T16:36:38.886Z,17.50
2023-04-17T16:39:11.506Z,17.85
2023-04-17T16:41:43.736Z,17.80
2023-04-17T16:44:16.599Z,17.70
2023-04-17T16:47:12.095Z,19.08
2023-04-17T16:49:43.626Z,19.05
2023-04-17T16:52:16.200Z,20.90
2023-04-17T16:54:51.007Z,18.90
2023-04-17T16:57:22.900Z,20.42
2023-04-17T16:59:57.852Z,19.98
2023-04-17T17:02:32.451Z,22.77
2023-04-17T17:05:06.118Z,23.20
2023-04-17T17:07:37.951Z,22.27
2023-04-17T17:10:12.033Z,23.35
2023-04-17T17:12:43.943Z,25.05
2023-04-17T17:15:16.040Z,23.88
2023-04-17T17:17:50.451Z,24.13
2023-04-17T17:20:22.704Z,24.83
2023-04-17T17:22:54.161Z,24.33
2023-04-17T17:25:26.146Z,23.48
2023-04-17T17:27:57.693Z,22.48
2023-04-17T17:30:29.726Z,23.50
2023-04-17T17:36:06.005Z,23.58
2023-04-17T17:38:37.785Z,24.27
2023-04-17T17:41:09.528Z,26.05
2023-04-17T17:43:41.451Z,23.13
2023-04-17T17:46:13.075Z,22.35
2023-04-17T17:48:47.721Z,22.92
2023-04-17T17:51:20.421Z,24.48
2023-04-17T17:53:53.034Z,21.83
2023-04-17T17:56:25.416Z,23.17
2023-04-17T17:58:57.267Z,23.83
2023-04-17T18:01:29.068Z,23.65
2023-04-17T18:04:04.074Z,23.23
2023-04-17T18:06:35.730Z,23.63
2023-04-17T18:09:07.768Z,23.73
2023-04-17T18:11:40.367Z,22.58
2023-04-17T18:14:12.646Z,22.20
2023-04-17T18:16:44.506Z,22.05
2023-04-17T18:19:19.020Z,22.17
2023-04-17T18:21:50.515Z,23.33
2023-04-17T18:24:22.549Z,24.52
2023-04-17T18:26:53.975Z,21.73
2023-04-17T18:29:26.004Z,23.05
2023-04-17T18:31:57.477Z,23.40
2023-04-17T18:34:43.041Z,23.27
2023-04-17T18:37:19.958Z,24.50
2023-04-17T18:39:56.260Z,24.63
2023-04-17T18:42:30.837Z,25.85
2023-04-17T18:45:06.837Z,26.20
2023-04-17T18:47:38.832Z,24.40
2023-04-17T18:50:12.635Z,23.70
2023-04-17T18:52:50.894Z,23.88
2023-04-17T18:55:23.379Z,24.50
2023-04-17T18:57:55.393Z,24.40
2023-04-17T19:00:28.194Z,27.40
2023-04-17T19:03:02.230Z,25.42
2023-04-17T19:05:35.291Z,27.08
2023-04-17T19:08:10.400Z,28.30
2023-04-17T19:10:43.196Z,28.00
2023-04-17T19:13:16.275Z,27.95
2023-04-17T19:15:49.435Z,28.45
2023-04-17T19:18:22.315Z,26.38
2023-04-17T19:20:55.234Z,27.13
2023-04-17T19:26:18.048Z,27.58
2023-04-17T19:28:50.097Z,29.05
2023-04-17T19:31:24.184Z,29.77
2023-04-17T19:33:58.092Z,28.75
2023-04-17T19:36:33.072Z,28.98
2023-04-17T19:42:31.813Z,31.33
2023-04-17T19:45:04.900Z,29.45
2023-04-17T19:47:41.062Z,30.38
2023-04-17T19:50:14.795Z,30.75
2023-04-17T19:52:47.249Z,30.80
2023-04-17T19:55:19.968Z,28.83
2023-04-17T19:57:57.528Z,28.92
2023-04-17T20:00:31.627Z,27.63
2023-04-17T20:03:04.293Z,26.80
2023-04-17T20:05:37.257Z,27.40
2023-04-17T20:08:10.254Z,25.52
2023-04-17T20:10:42.968Z,27.25
2023-04-17T20:13:18.222Z,23.85
2023-04-17T20:15:50.849Z,24.23
2023-04-17T20:18:23.091Z,24.42
2023-04-17T20:20:55.812Z,25.35
2023-04-17T20:23:27.911Z,24.70
2023-04-17T20:26:00.253Z,26.00
2023-04-17T20:28:34.910Z,26.70
2023-04-17T20:31:07.586Z,24.42
2023-04-17T20:33:39.646Z,24.88
2023-04-17T20:36:12.183Z,24.50
2023-04-17T20:38:44.132Z,24.00
2023-04-17T20:41:16.591Z,22.90
2023-04-17T20:43:59.782Z,23.48
2023-04-17T20:46:33.063Z,24.05
2023-04-17T20:49:05.234Z,25.88
2023-04-17T20:51:37.588Z,25.00
2023-04-17T20:54:09.601Z,25.55
2023-04-17T20:56:41.994Z,24.30
2023-04-17T20:59:16.788Z,23.52
2023-04-17T21:01:49.127Z,23.38
2023-04-17T21:04:22.249Z,23.73
2023-04-17T21:06:54.733Z,23.17
2023-04-17T21:09:28.288Z,23.70
2023-04-17T21:12:01.984Z,22.08
2023-04-17T21:14:39.246Z,22.58
2023-04-17T21:17:12.247Z,22.38
2023-04-17T21:19:44.350Z,21.30
2023-04-17T21:22:16.930Z,22.20
2023-04-17T21:24:49.194Z,22.88
2023-04-17T21:27:21.789Z,22.60
2023-04-17T21:29:56.629Z,23.95
2023-04-17T21:32:29.388Z,23.33
2023-04-17T21:35:01.755Z,21.13
2023-04-17T21:37:34.234Z,23.33
2023-04-17T21:40:06.708Z,21.00
2023-04-17T21:42:39.393Z,20.83
2023-04-17T21:45:15.344Z,21.70
2023-04-17T21:47:47.937Z,21.88
2023-04-17T21:50:20.457Z,22.08
2023-04-17T21:52:53.071Z,22.38
2023-04-17T21:55:35.136Z,21.90
2023-04-17T21:58:07.937Z,21.33
2023-04-17T22:00:43.901Z,22.25
2023-04-17T22:03:20.593Z,20.15
2023-04-17T22:05:57.015Z,20.42
2023-04-17T22:08:30.036Z,20.58
2023-04-17T22:11:03.017Z,19.75
2023-04-17T22:13:35.914Z,20.10
2023-04-17T22:16:10.959Z,20.35
2023-04-17T22:18:43.730Z,19.90
2023-04-17T22:21:16.220Z,21.15
2023-04-17T22:23:48.994Z,20.40
2023-04-17T22:26:21.253Z,21.20
2023-04-17T22:28:54.153Z,20.23
2023-04-17T22:31:29.298Z,20.85
2023-04-17T22:34:02.300Z,21.35
2023-04-17T22:36:34.655Z,18.48
2023-04-17T22:39:08.155Z,19.55
2023-04-17T22:41:40.459Z,19.95
2023-04-17T22:44:13.814Z,19.65
2023-04-17T22:46:49.561Z,19.80
2023-04-17T22:49:22.868Z,19.50
2023-04-17T22:51:56.049Z,20.38
2023-04-17T22:54:29.671Z,19.77
2023-04-17T22:57:02.778Z,19.48
2023-04-17T22:59:37.180Z,19.25
2023-04-17T23:02:12.833Z,20.00
2023-04-17T23:04:46.155Z,20.40
2023-04-17T23:07:18.244Z,20.65
2023-04-17T23:09:51.286Z,20.40
2023-04-17T23:12:24.113Z,19.05
2023-04-17T23:14:57.101Z,19.00
2023-04-17T23:17:32.497Z,19.95
2023-04-17T23:20:05.345Z,19.67
2023-04-17T23:22:37.977Z,19.75
2023-04-17T23:25:12.616Z,20.30
2023-04-17T23:27:46.477Z,20.55
2023-04-17T23:31:13.762Z,20.55
2023-04-17T23:33:49.373Z,20.38
2023-04-17T23:36:22.027Z,20.83
2023-04-17T23:38:54.483Z,19.98
2023-04-17T23:41:28.482Z,22.08
2023-04-17T23:44:01.703Z,20.98
2023-04-17T23:46:34.445Z,20.42
2023-04-17T23:49:10.070Z,20.20
2023-04-17T23:51:42.651Z,21.92
2023-04-17T23:54:15.724Z,20.25
2023-04-17T23:56:48.560Z,20.00
2023-04-17T23:59:20.867Z,20.83
